Time;durP1;ratioP1;P1;durP2;ratioP2;P2;SDS_P1;SDS_P2;PMS_P1;PMS_P2;Temp;Humidity;BMP_temperature;BMP_pressure;BME280_temperature;BME280_humidity;BME280_pressure;Samples;Min_cycle;Max_cycle;Signal;HPM_P1;HPM_P2
2023/08/06 00:00:39;;;;;;;1.40;1.30;;;16.50;99.90;;;;;;5047977;28;20153;-84
2023/08/06 00:03:05;;;;;;;1.40;1.40;;;16.50;99.90;;;;;;5048732;28;20232;-86
2023/08/06 00:05:31;;;;;;;1.10;1.10;;;16.50;99.90;;;;;;5033552;28;20307;-86
2023/08/06 00:07:57;;;;;;;1.57;1.50;;;16.50;99.90;;;;;;5038706;28;20599;-86
2023/08/06 00:10:22;;;;;;;1.20;1.20;;;16.40;99.90;;;;;;5053926;28;20168;-85
2023/08/06 00:12:48;;;;;;;1.63;1.10;;;16.50;99.90;;;;;;5059806;28;20216;-84
2023/08/06 00:15:14;;;;;;;2.00;1.00;;;16.40;99.90;;;;;;5028020;28;20184;-82
2023/08/06 00:17:40;;;;;;;1.30;1.30;;;16.40;99.90;;;;;;5037496;28;20175;-85
2023/08/06 00:20:07;;;;;;;1.07;1.07;;;16.40;99.90;;;;;;5040146;28;20630;-83
2023/08/06 00:22:34;;;;;;;1.40;1.00;;;16.40;99.90;;;;;;5037787;28;20177;-85
2023/08/06 00:25:00;;;;;;;0.97;0.80;;;16.40;99.90;;;;;;5037213;28;20164;-86
2023/08/06 00:27:26;;;;;;;1.90;1.00;;;16.40;99.90;;;;;;5035906;28;20180;-87
2023/08/06 00:29:52;;;;;;;1.23;1.13;;;16.40;99.90;;;;;;5036610;28;20620;-85
2023/08/06 00:32:18;;;;;;;1.63;1.10;;;16.40;99.90;;;;;;5037205;28;20190;-86
2023/08/06 00:34:44;;;;;;;0.70;0.70;;;16.40;99.90;;;;;;5041536;28;20179;-86
2023/08/06 00:37:11;;;;;;;0.73;0.73;;;16.40;99.90;;;;;;5043521;28;20181;-81
2023/08/06 00:39:37;;;;;;;0.70;0.70;;;16.40;99.90;;;;;;5038474;28;20170;-82
2023/08/06 00:42:03;;;;;;;0.87;0.80;;;16.40;99.90;;;;;;5037403;28;20504;-84
2023/08/06 00:44:29;;;;;;;0.80;0.80;;;16.30;99.90;;;;;;5035800;28;20342;-86
2023/08/06 00:46:56;;;;;;;0.93;0.93;;;16.30;99.90;;;;;;5035342;28;20293;-82
2023/08/06 00:49:24;;;;;;;1.30;1.20;;;16.30;99.90;;;;;;5035389;28;20267;-85
2023/08/06 00:51:50;;;;;;;1.00;1.00;;;16.40;99.90;;;;;;5034604;28;20191;-80
2023/08/06 00:54:16;;;;;;;0.97;0.97;;;16.30;99.90;;;;;;5036130;28;20211;-85
2023/08/06 00:56:42;;;;;;;0.90;0.90;;;16.30;99.90;;;;;;5035816;28;20173;-82
2023/08/06 00:59:10;;;;;;;1.07;1.07;;;16.30;99.90;;;;;;5035627;28;20533;-86
2023/08/06 01:01:36;;;;;;;0.83;0.83;;;16.30;99.90;;;;;;5035869;28;20225;-85
2023/08/06 01:04:03;;;;;;;0.70;0.70;;;16.30;99.90;;;;;;5036533;28;20559;-84
2023/08/06 01:06:38;;;;;;;1.10;1.10;;;16.30;99.90;;;;;;5035892;28;20179;-82
2023/08/06 01:09:28;;;;;;;1.20;1.20;;;16.30;99.90;;;;;;5035630;28;20250;-85
2023/08/06 01:12:15;;;;;;;0.70;0.70;;;16.30;99.90;;;;;;5036403;28;20172;-82
2023/08/06 01:15:03;;;;;;;2.10;1.10;;;16.30;99.90;;;;;;5039401;28;20230;-85
2023/08/06 01:17:30;;;;;;;1.20;1.20;;;16.30;99.90;;;;;;5040136;28;20189;-86
2023/08/06 01:19:56;;;;;;;1.10;1.10;;;16.30;99.90;;;;;;5037270;28;20160;-88
2023/08/06 01:22:22;;;;;;;1.63;1.00;;;16.30;99.90;;;;;;5047551;28;20240;-83
2023/08/06 01:24:50;;;;;;;1.87;1.30;;;16.30;99.90;;;;;;5045923;28;20203;-87
2023/08/06 01:27:37;;;;;;;1.13;1.07;;;16.30;99.90;;;;;;5021407;28;20203;-84
2023/08/06 01:30:11;;;;;;;1.03;1.03;;;16.30;99.90;;;;;;5036479;28;20182;-87
2023/08/06 01:32:42;;;;;;;1.93;1.27;;;16.30;99.90;;;;;;5039756;28;20786;-80
2023/08/06 01:35:10;;;;;;;1.33;1.20;;;16.30;99.90;;;;;;5050562;28;20168;-79
2023/08/06 01:37:37;;;;;;;1.00;1.00;;;16.30;99.90;;;;;;5052867;28;20216;-81
2023/08/06 01:40:09;;;;;;;1.23;1.23;;;16.30;99.90;;;;;;5034342;28;20269;-81
2023/08/06 01:42:35;;;;;;;2.10;1.30;;;16.30;99.90;;;;;;5033768;28;20230;-80
2023/08/06 01:45:01;;;;;;;2.00;1.17;;;16.20;99.90;;;;;;5032907;28;20201;-83
2023/08/06 01:47:27;;;;;;;1.17;1.17;;;16.20;99.90;;;;;;5019383;28;20192;-79
2023/08/06 01:49:52;;;;;;;1.87;1.40;;;16.20;99.90;;;;;;5050753;28;20196;-82
2023/08/06 01:52:18;;;;;;;1.47;1.40;;;16.20;99.90;;;;;;5053198;28;20186;-81
2023/08/06 01:54:44;;;;;;;1.10;1.10;;;16.20;99.90;;;;;;5038301;28;20252;-81
2023/08/06 01:57:10;;;;;;;1.50;1.43;;;16.20;99.90;;;;;;5036691;28;20172;-80
2023/08/06 01:59:36;;;;;;;1.70;1.60;;;16.20;99.90;;;;;;5033410;28;20252;-81
2023/08/06 02:02:01;;;;;;;1.20;1.20;;;16.30;99.90;;;;;;5015157;28;20177;-82
2023/08/06 02:04:27;;;;;;;1.00;1.00;;;16.30;99.90;;;;;;5032558;28;20186;-79
2023/08/06 02:06:53;;;;;;;1.30;1.30;;;16.30;99.90;;;;;;5033278;28;20199;-82
2023/08/06 02:09:19;;;;;;;1.47;1.33;;;16.30;99.90;;;;;;5033512;28;20178;-82
2023/08/06 02:11:45;;;;;;;1.10;1.10;;;16.30;99.90;;;;;;5015746;28;20180;-82
2023/08/06 02:14:11;;;;;;;1.23;1.23;;;16.30;99.90;;;;;;5033501;28;20208;-82
2023/08/06 02:16:37;;;;;;;1.37;1.20;;;16.30;99.90;;;;;;5039357;28;20182;-84
2023/08/06 02:19:03;;;;;;;1.10;1.10;;;16.20;99.90;;;;;;5045281;28;20176;-81
2023/08/06 02:21:30;;;;;;;0.97;0.97;;;16.20;99.90;;;;;;5033432;28;20549;-83
2023/08/06 02:23:56;;;;;;;1.20;1.20;;;16.20;99.90;;;;;;5015430;28;20177;-81
2023/08/06 02:26:22;;;;;;;0.97;0.90;;;16.20;99.90;;;;;;5033522;28;20165;-83
2023/08/06 02:28:47;;;;;;;1.33;1.33;;;16.20;99.90;;;;;;5033785;28;20640;-79
2023/08/06 02:31:13;;;;;;;1.10;1.10;;;16.20;99.90;;;;;;5033493;28;20193;-82
2023/08/06 02:33:39;;;;;;;1.03;1.03;;;16.20;99.90;;;;;;5033544;28;20208;-81
2023/08/06 02:36:05;;;;;;;1.10;1.10;;;16.20;99.90;;;;;;5033263;28;20172;-81
2023/08/06 02:38:33;;;;;;;2.70;1.00;;;16.20;99.90;;;;;;5033699;28;20179;-82
2023/08/06 02:41:01;;;;;;;1.43;1.00;;;16.20;99.90;;;;;;5033364;28;20255;-82
2023/08/06 02:43:27;;;;;;;1.20;1.10;;;16.20;99.90;;;;;;5017968;28;20197;-83
2023/08/06 02:45:57;;;;;;;0.93;0.93;;;16.20;99.90;;;;;;5033902;28;20227;-81
2023/08/06 02:48:23;;;;;;;1.60;1.17;;;16.20;99.90;;;;;;5033408;28;20161;-83
2023/08/06 02:50:49;;;;;;;1.00;1.00;;;16.20;99.90;;;;;;5036016;28;20259;-82
2023/08/06 02:53:15;;;;;;;0.80;0.80;;;16.10;99.90;;;;;;5036989;28;20207;-82
2023/08/06 02:55:47;;;;;;;0.80;0.80;;;16.10;99.90;;;;;;5037187;28;20173;-81
2023/08/06 02:58:14;;;;;;;0.97;0.97;;;16.10;99.90;;;;;;5020136;28;20173;-82
2023/08/06 03:00:39;;;;;;;0.90;0.90;;;16.10;99.90;;;;;;5038647;28;20173;-83
2023/08/06 03:03:05;;;;;;;1.00;1.00;;;16.00;99.90;;;;;;5043781;28;20176;-83
2023/08/06 03:05:31;;;;;;;1.23;0.93;;;16.10;99.90;;;;;;5038198;28;20181;-83
2023/08/06 03:07:57;;;;;;;0.80;0.80;;;16.00;99.90;;;;;;5037461;28;20177;-80
2023/08/06 03:10:22;;;;;;;2.63;1.20;;;16.00;99.90;;;;;;5018705;28;21014;-81
2023/08/06 03:12:48;;;;;;;1.00;0.90;;;16.00;99.90;;;;;;5055170;28;20260;-82
2023/08/06 03:15:14;;;;;;;1.20;0.90;;;16.00;99.90;;;;;;5043525;28;20522;-82
2023/08/06 03:17:40;;;;;;;0.90;0.90;;;16.00;99.90;;;;;;5028469;28;20212;-82
2023/08/06 03:20:06;;;;;;;0.80;0.80;;;16.00;99.90;;;;;;5037308;28;20180;-81
2023/08/06 03:22:32;;;;;;;0.83;0.83;;;16.00;99.90;;;;;;5019013;28;20596;-81
2023/08/06 03:24:58;;;;;;;0.97;0.97;;;16.00;99.90;;;;;;5048312;28;20169;-83
2023/08/06 03:27:24;;;;;;;1.10;1.10;;;16.00;99.90;;;;;;5060397;28;20181;-85
2023/08/06 03:29:50;;;;;;;1.03;1.00;;;16.00;99.90;;;;;;5061182;28;20200;-86
2023/08/06 03:32:16;;;;;;;1.43;1.37;;;16.00;99.90;;;;;;5051070;28;20177;-82
2023/08/06 03:34:42;;;;;;;1.50;1.50;;;16.00;99.90;;;;;;5019166;28;20185;-83
2023/08/06 03:37:08;;;;;;;1.30;1.30;;;16.00;99.90;;;;;;5036476;28;20662;-84
2023/08/06 03:39:34;;;;;;;1.53;1.53;;;16.00;99.90;;;;;;5017761;28;20265;-84
2023/08/06 03:41:59;;;;;;;1.80;1.30;;;16.00;99.90;;;;;;5036084;28;20543;-80
2023/08/06 03:44:26;;;;;;;2.00;1.57;;;16.00;99.90;;;;;;5035640;28;20238;-82
2023/08/06 03:46:52;;;;;;;3.53;1.67;;;16.10;99.90;;;;;;5035637;28;20239;-81
2023/08/06 03:49:18;;;;;;;1.60;1.60;;;16.00;99.90;;;;;;5036032;28;20636;-82
2023/08/06 03:51:44;;;;;;;1.50;1.50;;;16.10;99.90;;;;;;5035942;28;20184;-82
2023/08/06 03:54:10;;;;;;;1.80;1.70;;;16.10;99.90;;;;;;5038853;28;20208;-80
2023/08/06 03:56:36;;;;;;;1.93;1.83;;;16.00;99.90;;;;;;5041589;28;20199;-82
2023/08/06 03:59:01;;;;;;;1.50;1.50;;;16.10;99.90;;;;;;5047451;28;20170;-81
2023/08/06 04:01:27;;;;;;;1.90;1.80;;;16.00;99.90;;;;;;5048539;28;20177;-83
2023/08/06 04:03:53;;;;;;;2.00;1.70;;;16.10;99.90;;;;;;5035854;28;20263;-82
2023/08/06 04:06:19;;;;;;;2.50;2.30;;;16.00;99.90;;;;;;5035173;28;20215;-82
2023/08/06 04:08:44;;;;;;;1.90;1.80;;;16.00;99.90;;;;;;5035916;28;20196;-81
2023/08/06 04:11:10;;;;;;;3.43;1.70;;;16.00;99.90;;;;;;5035611;28;20178;-82
2023/08/06 04:13:36;;;;;;;1.60;1.53;;;16.10;99.90;;;;;;5035625;28;20230;-84
2023/08/06 04:16:03;;;;;;;1.70;1.70;;;16.10;99.90;;;;;;5035061;28;20170;-82
2023/08/06 04:18:29;;;;;;;1.20;1.20;;;16.10;99.90;;;;;;5035552;28;20644;-81
2023/08/06 04:20:55;;;;;;;1.40;1.40;;;16.10;99.90;;;;;;5035292;28;20169;-82
2023/08/06 04:23:21;;;;;;;1.40;1.40;;;16.10;99.90;;;;;;5035548;28;20173;-79
2023/08/06 04:25:47;;;;;;;1.23;1.20;;;16.10;99.90;;;;;;5016000;28;20214;-80
2023/08/06 04:28:13;;;;;;;1.53;1.47;;;16.10;99.90;;;;;;5034982;28;20170;-82
2023/08/06 04:30:40;;;;;;;1.50;1.50;;;16.00;99.90;;;;;;5035143;28;20172;-83
2023/08/06 04:33:05;;;;;;;1.67;1.60;;;16.10;99.90;;;;;;5034492;28;20283;-83
2023/08/06 04:35:31;;;;;;;2.10;2.00;;;16.10;99.90;;;;;;5034096;28;20219;-84
2023/08/06 04:37:57;;;;;;;1.77;1.73;;;16.20;99.90;;;;;;5038218;28;20191;-83
2023/08/06 04:40:23;;;;;;;1.87;1.83;;;16.10;99.90;;;;;;5046325;28;20173;-82
2023/08/06 04:42:49;;;;;;;1.80;1.80;;;16.20;99.90;;;;;;5035505;28;20177;-82
2023/08/06 04:45:14;;;;;;;2.57;2.20;;;16.20;99.90;;;;;;5034128;28;20212;-83
2023/08/06 04:47:40;;;;;;;2.60;2.40;;;16.30;99.90;;;;;;5034524;28;20259;-84
2023/08/06 04:50:06;;;;;;;2.83;2.63;;;16.30;99.90;;;;;;5045648;28;20176;-82
2023/08/06 04:52:32;;;;;;;2.73;2.63;;;16.30;99.90;;;;;;5047630;28;20683;-84
2023/08/06 04:54:58;;;;;;;2.63;2.53;;;16.30;99.90;;;;;;5036343;28;20267;-84
2023/08/06 04:57:24;;;;;;;2.63;2.53;;;16.30;99.90;;;;;;5035169;28;20263;-83
2023/08/06 04:59:50;;;;;;;2.60;2.47;;;16.30;99.90;;;;;;5036471;28;20184;-82
2023/08/06 05:02:15;;;;;;;2.67;2.57;;;16.30;99.90;;;;;;5046542;28;20690;-82
2023/08/06 05:04:41;;;;;;;2.60;2.40;;;16.40;99.90;;;;;;5040061;28;20183;-83
2023/08/06 05:07:07;;;;;;;2.90;2.80;;;16.40;99.90;;;;;;5058506;28;20200;-82
2023/08/06 05:09:33;;;;;;;3.30;3.10;;;16.40;99.90;;;;;;5054280;28;20184;-83
2023/08/06 05:12:02;;;;;;;3.50;3.30;;;16.40;99.90;;;;;;5021409;28;20602;-83
2023/08/06 05:14:28;;;;;;;3.40;3.20;;;16.40;99.90;;;;;;5037596;28;20211;-83
2023/08/06 05:16:53;;;;;;;3.60;3.10;;;16.40;99.90;;;;;;5035036;28;20295;-82
2023/08/06 05:19:19;;;;;;;3.20;3.10;;;16.40;99.90;;;;;;5038049;28;20183;-83
2023/08/06 05:21:45;;;;;;;3.50;3.30;;;16.40;99.90;;;;;;5035434;28;20532;-83
2023/08/06 05:24:12;;;;;;;3.13;2.93;;;16.40;99.90;;;;;;5052851;28;20200;-82
2023/08/06 05:26:37;;;;;;;2.70;2.60;;;16.40;99.90;;;;;;5040568;28;20168;-84
2023/08/06 05:29:03;;;;;;;2.50;2.40;;;16.40;99.90;;;;;;5035477;28;20200;-83
2023/08/06 05:31:29;;;;;;;2.30;2.20;;;16.40;99.90;;;;;;5034251;28;20623;-84
2023/08/06 05:33:55;;;;;;;2.60;2.40;;;16.30;99.90;;;;;;5033962;28;20596;-80
2023/08/06 05:36:21;;;;;;;2.33;2.23;;;16.30;99.90;;;;;;5033882;28;20226;-83
2023/08/06 05:38:47;;;;;;;2.40;2.20;;;16.30;99.90;;;;;;5034225;28;20179;-82
2023/08/06 05:41:13;;;;;;;2.20;2.10;;;16.30;99.90;;;;;;5039515;28;20224;-84
2023/08/06 05:43:39;;;;;;;2.10;2.00;;;16.30;99.90;;;;;;5029164;28;20509;-83
2023/08/06 05:46:05;;;;;;;1.87;1.87;;;16.30;99.90;;;;;;5034974;28;20224;-81
2023/08/06 05:48:31;;;;;;;2.70;2.30;;;16.30;99.90;;;;;;5036076;28;20173;-81
2023/08/06 05:50:58;;;;;;;1.90;1.80;;;16.30;99.90;;;;;;5053242;28;20167;-83
2023/08/06 05:53:24;;;;;;;1.80;1.80;;;16.30;99.90;;;;;;5057766;28;20267;-83
2023/08/06 05:55:50;;;;;;;1.93;1.83;;;16.30;99.90;;;;;;5055406;28;20234;-80
2023/08/06 05:58:16;;;;;;;1.80;1.70;;;16.30;99.90;;;;;;5036370;28;20200;-81
2023/08/06 06:00:42;;;;;;;1.90;1.80;;;16.40;99.90;;;;;;5043685;28;20170;-82
2023/08/06 06:03:08;;;;;;;1.97;1.87;;;16.40;99.90;;;;;;5033754;28;20195;-84
2023/08/06 06:05:34;;;;;;;1.80;1.80;;;16.40;99.90;;;;;;5033472;28;20177;-83
2023/08/06 06:08:01;;;;;;;2.37;2.27;;;16.50;99.90;;;;;;5033142;28;20172;-80
2023/08/06 06:10:27;;;;;;;2.40;2.30;;;16.50;99.90;;;;;;5033467;28;20218;-83
2023/08/06 06:12:52;;;;;;;2.20;2.10;;;16.50;99.90;;;;;;5033072;28;20240;-78
2023/08/06 06:15:18;;;;;;;3.07;2.00;;;16.50;99.90;;;;;;5032699;28;20185;-81
2023/08/06 06:17:44;;;;;;;2.50;2.40;;;16.40;99.90;;;;;;5051431;28;20175;-82
2023/08/06 06:20:10;;;;;;;2.47;2.30;;;16.40;99.90;;;;;;5034467;28;20661;-81
2023/08/06 06:22:35;;;;;;;2.13;2.13;;;16.50;99.90;;;;;;5014758;28;20591;-82
2023/08/06 06:25:01;;;;;;;2.47;2.37;;;16.50;99.90;;;;;;5033731;28;20190;-83
2023/08/06 06:27:27;;;;;;;2.20;2.10;;;16.60;99.90;;;;;;5039889;28;20173;-81
2023/08/06 06:29:54;;;;;;;2.50;2.40;;;16.90;99.90;;;;;;5036615;28;20194;-83
2023/08/06 06:32:20;;;;;;;3.13;2.70;;;16.60;99.90;;;;;;5037941;28;20200;-80
2023/08/06 06:34:46;;;;;;;2.37;2.27;;;16.60;99.90;;;;;;5039150;28;20316;-81
2023/08/06 06:37:12;;;;;;;2.40;2.30;;;16.70;99.90;;;;;;5039060;28;20176;-81
2023/08/06 06:39:38;;;;;;;2.47;2.37;;;16.70;99.90;;;;;;5019760;28;20192;-81
2023/08/06 06:42:04;;;;;;;3.00;2.70;;;16.80;99.90;;;;;;5038127;28;20181;-81
2023/08/06 06:44:29;;;;;;;2.50;2.40;;;16.70;99.90;;;;;;5047173;28;20195;-79
2023/08/06 06:46:57;;;;;;;3.10;2.80;;;16.60;99.90;;;;;;5057069;28;20292;-87
2023/08/06 06:49:22;;;;;;;2.37;2.27;;;16.60;99.90;;;;;;5043073;28;20181;-81
2023/08/06 06:51:48;;;;;;;2.83;2.63;;;16.60;99.90;;;;;;5037051;28;20180;-78
2023/08/06 06:54:14;;;;;;;2.23;2.13;;;16.60;99.90;;;;;;5002742;28;20224;-82
2023/08/06 06:56:40;;;;;;;1.80;1.80;;;16.50;99.90;;;;;;5036204;28;20169;-82
2023/08/06 06:59:06;;;;;;;1.90;1.80;;;16.50;99.90;;;;;;5036709;28;20173;-80
2023/08/06 07:01:32;;;;;;;1.90;1.80;;;16.50;99.90;;;;;;5038327;28;20182;-81
2023/08/06 07:03:58;;;;;;;2.00;1.90;;;16.50;99.90;;;;;;5037734;28;20183;-79
2023/08/06 07:06:24;;;;;;;1.80;1.70;;;16.50;99.90;;;;;;5037203;28;20177;-80
2023/08/06 07:08:49;;;;;;;2.27;1.40;;;16.50;99.90;;;;;;5037857;28;20172;-80
2023/08/06 07:11:15;;;;;;;1.60;1.60;;;16.50;99.90;;;;;;5036876;28;20179;-82
2023/08/06 07:13:41;;;;;;;1.70;1.70;;;16.60;99.90;;;;;;5036676;28;20675;-81
2023/08/06 07:16:07;;;;;;;1.80;1.70;;;16.60;99.90;;;;;;5023377;28;20176;-82
2023/08/06 07:18:33;;;;;;;1.97;1.70;;;16.70;99.90;;;;;;5046952;28;20156;-80
2023/08/06 07:20:58;;;;;;;1.50;1.50;;;16.70;99.90;;;;;;5038375;28;20709;-83
2023/08/06 07:23:25;;;;;;;1.50;1.50;;;16.80;99.90;;;;;;5037733;28;20959;-84
2023/08/06 07:25:51;;;;;;;1.73;1.73;;;16.90;99.90;;;;;;5039824;28;20279;-83
2023/08/06 07:28:18;;;;;;;2.00;1.50;;;16.90;99.90;;;;;;5035854;28;20661;-82
2023/08/06 07:30:44;;;;;;;1.20;1.20;;;17.00;99.90;;;;;;5032866;28;20589;-80
2023/08/06 07:33:10;;;;;;;1.87;1.77;;;17.10;99.90;;;;;;5054455;28;20197;-82
2023/08/06 07:35:37;;;;;;;2.10;1.90;;;17.20;99.90;;;;;;5054745;28;20194;-83
2023/08/06 07:38:03;;;;;;;2.00;1.90;;;17.20;99.90;;;;;;5040889;28;20184;-81
2023/08/06 07:40:29;;;;;;;1.80;1.80;;;17.10;99.90;;;;;;5025774;28;20193;-83
2023/08/06 07:42:55;;;;;;;1.90;1.90;;;17.20;99.90;;;;;;5041756;28;20207;-83
2023/08/06 07:45:21;;;;;;;3.13;1.70;;;17.20;99.90;;;;;;5045003;28;20247;-83
2023/08/06 07:47:47;;;;;;;2.13;1.93;;;17.30;99.90;;;;;;5050926;28;20183;-82
2023/08/06 07:50:13;;;;;;;1.70;1.70;;;17.30;99.90;;;;;;5053368;28;20239;-80
2023/08/06 07:52:39;;;;;;;1.73;1.60;;;17.30;99.90;;;;;;5036585;28;20204;-82
2023/08/06 07:55:06;;;;;;;1.70;1.60;;;17.40;99.90;;;;;;5055056;28;20173;-81
2023/08/06 07:57:33;;;;;;;1.67;1.57;;;17.40;99.90;;;;;;5048601;28;20198;-81
2023/08/06 07:59:59;;;;;;;2.93;1.90;;;17.40;99.90;;;;;;5052644;28;20154;-81
2023/08/06 08:02:27;;;;;;;1.83;1.70;;;17.40;99.90;;;;;;5058548;28;20748;-82
2023/08/06 08:04:53;;;;;;;2.00;1.90;;;17.50;99.90;;;;;;5056136;28;20188;-79
2023/08/06 08:07:19;;;;;;;1.47;1.47;;;17.50;99.90;;;;;;5057083;28;20204;-79
2023/08/06 08:09:45;;;;;;;1.53;1.50;;;17.60;99.90;;;;;;5042807;28;20241;-81
2023/08/06 08:12:11;;;;;;;1.70;1.60;;;17.60;99.90;;;;;;5040486;28;20695;-79
2023/08/06 08:14:36;;;;;;;1.40;1.40;;;17.70;99.90;;;;;;5042781;28;20702;-83
2023/08/06 08:17:04;;;;;;;1.37;1.37;;;17.70;99.90;;;;;;5040295;28;20192;-80
2023/08/06 08:19:31;;;;;;;1.90;1.33;;;17.70;99.90;;;;;;5050727;28;20167;-82
2023/08/06 08:22:00;;;;;;;1.30;1.30;;;17.80;99.90;;;;;;5054954;28;20171;-79
2023/08/06 08:24:27;;;;;;;1.20;1.20;;;17.90;99.90;;;;;;5058982;28;20199;-80
2023/08/06 08:26:53;;;;;;;2.50;1.30;;;17.90;99.90;;;;;;5046734;28;20180;-85
2023/08/06 08:29:22;;;;;;;1.63;1.60;;;18.00;99.90;;;;;;5032667;28;20181;-83
2023/08/06 08:31:50;;;;;;;1.60;1.50;;;18.10;99.90;;;;;;5050415;28;20241;-82
2023/08/06 08:34:18;;;;;;;1.30;1.30;;;18.10;99.90;;;;;;5046168;28;20259;-82
2023/08/06 08:36:46;;;;;;;1.30;1.30;;;18.10;99.90;;;;;;5033172;28;20172;-81
2023/08/06 08:39:14;;;;;;;1.30;1.30;;;18.10;99.90;;;;;;5054409;28;20177;-84
2023/08/06 08:41:40;;;;;;;1.33;1.33;;;18.10;99.90;;;;;;5049924;28;20176;-84
2023/08/06 08:44:10;;;;;;;1.43;1.43;;;18.10;99.90;;;;;;5049410;28;20217;-82
2023/08/06 08:46:39;;;;;;;1.70;1.17;;;18.20;99.90;;;;;;5041353;28;20228;-83
2023/08/06 08:49:06;;;;;;;1.23;1.23;;;18.20;99.90;;;;;;5040763;28;20181;-82
2023/08/06 08:51:36;;;;;;;1.63;1.53;;;18.30;99.90;;;;;;5048776;28;20165;-86
2023/08/06 08:54:08;;;;;;;1.37;1.37;;;18.20;99.90;;;;;;5019499;28;20267;-80
2023/08/06 08:56:34;;;;;;;2.80;1.60;;;18.20;99.90;;;;;;5015737;28;20200;-82
2023/08/06 08:59:00;;;;;;;1.50;1.33;;;18.20;99.90;;;;;;5037201;28;20235;-86
2023/08/06 09:01:32;;;;;;;1.37;1.37;;;18.10;99.90;;;;;;5022052;28;20177;-84
2023/08/06 09:03:58;;;;;;;1.50;1.40;;;18.10;99.90;;;;;;5007746;28;20188;-81
2023/08/06 09:06:27;;;;;;;1.87;1.37;;;18.10;99.90;;;;;;5047717;28;20169;-83
2023/08/06 09:09:13;;;;;;;1.00;1.00;;;18.10;99.90;;;;;;5022214;28;20667;-84
2023/08/06 09:11:49;;;;;;;2.00;1.90;;;18.10;99.90;;;;;;5042944;28;20528;-83
2023/08/06 09:14:15;;;;;;;1.70;1.70;;;18.10;99.90;;;;;;5005280;28;20279;-80
2023/08/06 09:16:41;;;;;;;1.97;1.87;;;18.10;99.90;;;;;;5038984;28;20176;-80
2023/08/06 09:19:12;;;;;;;1.93;1.83;;;18.10;99.90;;;;;;5045006;28;20218;-86
2023/08/06 09:21:39;;;;;;;1.47;1.47;;;18.10;99.90;;;;;;5046683;28;20168;-85
2023/08/06 09:24:16;;;;;;;1.30;1.30;;;18.10;99.90;;;;;;5046834;28;20173;-81
2023/08/06 09:26:44;;;;;;;1.57;1.57;;;18.20;99.90;;;;;;5026653;28;20270;-86
2023/08/06 09:29:11;;;;;;;1.60;1.50;;;18.10;99.90;;;;;;5044405;28;20212;-81
2023/08/06 09:31:47;;;;;;;1.43;1.43;;;18.10;99.90;;;;;;5009746;28;20684;-80
2023/08/06 09:34:24;;;;;;;2.40;1.40;;;18.20;99.90;;;;;;5034936;28;20211;-82
2023/08/06 09:36:54;;;;;;;1.50;1.50;;;18.20;99.90;;;;;;5036137;28;20187;-86
2023/08/06 09:39:31;;;;;;;1.67;1.63;;;18.20;99.90;;;;;;5020690;28;20180;-79
2023/08/06 09:42:02;;;;;;;2.30;2.20;;;18.20;99.90;;;;;;5017257;28;20183;-85
2023/08/06 09:44:30;;;;;;;2.47;2.10;;;18.30;99.90;;;;;;5027983;28;20412;-80
2023/08/06 09:46:58;;;;;;;8.30;4.37;;;18.30;99.90;;;;;;5045614;28;20243;-79
2023/08/06 09:49:41;;;;;;;7.53;3.47;;;18.30;99.90;;;;;;5035954;28;20187;-80
2023/08/06 09:52:10;;;;;;;3.33;3.03;;;18.50;99.90;;;;;;5034687;28;20160;-78
2023/08/06 09:54:38;;;;;;;2.10;2.00;;;18.60;99.90;;;;;;5016309;28;20212;-80
2023/08/06 09:57:06;;;;;;;2.07;1.70;;;18.70;99.90;;;;;;5034726;28;20181;-79
2023/08/06 09:59:32;;;;;;;2.60;2.40;;;18.90;99.90;;;;;;5036365;28;20168;-80
2023/08/06 10:01:59;;;;;;;2.70;1.87;;;18.90;99.90;;;;;;5016814;28;20181;-80
2023/08/06 10:04:25;;;;;;;2.97;1.80;;;18.90;99.90;;;;;;5043019;28;20159;-85
2023/08/06 10:06:53;;;;;;;2.20;2.10;;;18.90;99.90;;;;;;5042472;28;20247;-81
2023/08/06 10:09:20;;;;;;;2.03;1.93;;;19.10;99.90;;;;;;5020977;28;20181;-80
2023/08/06 10:11:52;;;;;;;1.73;1.63;;;19.20;99.90;;;;;;5038529;28;20220;-81
2023/08/06 10:14:34;;;;;;;1.70;1.60;;;19.40;99.90;;;;;;5021657;28;20204;-80
2023/08/06 10:17:01;;;;;;;1.67;1.57;;;19.50;99.90;;;;;;5020935;28;20168;-79
2023/08/06 10:19:28;;;;;;;1.60;1.50;;;19.70;99.90;;;;;;5038425;28;20631;-83
2023/08/06 10:22:17;;;;;;;1.57;1.57;;;19.90;99.90;;;;;;5020182;28;20184;-85
2023/08/06 10:24:54;;;;;;;1.67;1.57;;;20.00;99.90;;;;;;5020156;28;20188;-79
2023/08/06 10:27:32;;;;;;;1.00;1.00;;;20.10;99.90;;;;;;5037822;28;20164;-79
2023/08/06 10:30:28;;;;;;;1.60;1.60;;;20.20;99.90;;;;;;5037638;28;20172;-80
2023/08/06 10:33:00;;;;;;;1.70;1.20;;;20.20;99.90;;;;;;5021478;28;20208;-79
2023/08/06 10:35:44;;;;;;;1.20;1.20;;;20.40;99.90;;;;;;5038095;28;20156;-80
2023/08/06 10:38:17;;;;;;;1.70;1.60;;;20.50;99.90;;;;;;5023971;28;20184;-80
2023/08/06 10:40:55;;;;;;;1.30;1.30;;;20.60;99.90;;;;;;5039303;28;20184;-82
2023/08/06 10:43:28;;;;;;;1.13;1.13;;;20.80;99.90;;;;;;5043258;28;20236;-80
2023/08/06 10:45:54;;;;;;;1.00;1.00;;;20.70;99.90;;;;;;5046483;28;20228;-81
2023/08/06 10:48:32;;;;;;;1.20;1.10;;;20.70;99.90;;;;;;5034922;28;20253;-85
2023/08/06 10:51:01;;;;;;;1.10;1.10;;;20.80;99.90;;;;;;5047479;28;20191;-82
2023/08/06 10:53:27;;;;;;;0.93;0.93;;;20.90;99.90;;;;;;5020985;28;20209;-79
2023/08/06 10:55:53;;;;;;;1.10;1.10;;;20.90;99.90;;;;;;5036778;28;20246;-78
2023/08/06 10:58:19;;;;;;;1.20;1.10;;;20.90;99.90;;;;;;5037980;28;20168;-78
2023/08/06 11:00:45;;;;;;;0.80;0.80;;;20.80;99.90;;;;;;5040029;28;20194;-77
2023/08/06 11:03:12;;;;;;;0.93;0.93;;;20.90;99.90;;;;;;5022169;28;20540;-79
2023/08/06 11:05:39;;;;;;;0.80;0.80;;;21.00;99.90;;;;;;5043987;28;20173;-78
2023/08/06 11:08:05;;;;;;;0.80;0.80;;;21.10;99.90;;;;;;5028296;28;20547;-79
2023/08/06 11:10:33;;;;;;;1.00;1.00;;;21.20;99.90;;;;;;5038955;28;20175;-86
2023/08/06 11:13:03;;;;;;;1.10;1.10;;;21.30;99.90;;;;;;5032860;28;20215;-84
2023/08/06 11:15:30;;;;;;;0.80;0.80;;;21.20;99.90;;;;;;5042660;28;20177;-77
2023/08/06 11:17:56;;;;;;;1.10;1.10;;;21.10;99.90;;;;;;5040241;28;20690;-78
2023/08/06 11:20:22;;;;;;;0.97;0.97;;;21.00;99.90;;;;;;5048650;28;20169;-79
2023/08/06 11:22:48;;;;;;;0.77;0.77;;;20.80;99.90;;;;;;5050993;28;20181;-77
2023/08/06 11:25:14;;;;;;;0.97;0.97;;;20.70;99.90;;;;;;5054441;28;20172;-77
2023/08/06 11:27:40;;;;;;;0.90;0.90;;;20.80;99.90;;;;;;5041079;28;20207;-86
2023/08/06 11:30:06;;;;;;;1.20;1.10;;;20.70;99.90;;;;;;5045002;28;20232;-83
2023/08/06 11:32:33;;;;;;;0.90;0.90;;;20.80;99.90;;;;;;5056967;28;20207;-83
2023/08/06 11:34:59;;;;;;;0.90;0.90;;;20.90;99.90;;;;;;5053078;28;20202;-82
2023/08/06 11:37:25;;;;;;;1.00;1.00;;;21.00;99.90;;;;;;5040432;28;20723;-79
2023/08/06 11:39:51;;;;;;;0.80;0.80;;;21.20;99.90;;;;;;5043501;28;20168;-81
2023/08/06 11:42:18;;;;;;;0.70;0.70;;;21.10;99.90;;;;;;5054450;28;20192;-82
2023/08/06 11:44:45;;;;;;;1.00;0.87;;;21.00;99.90;;;;;;5053598;28;20521;-78
2023/08/06 11:47:14;;;;;;;0.70;0.70;;;21.00;99.90;;;;;;5004209;28;20229;-83
2023/08/06 11:49:46;;;;;;;0.60;0.60;;;21.10;99.90;;;;;;5019428;28;20655;-81
2023/08/06 11:52:19;;;;;;;0.70;0.70;;;21.20;99.90;;;;;;5018372;28;20161;-81
2023/08/06 11:54:59;;;;;;;0.50;0.50;;;21.10;99.90;;;;;;5017319;28;20208;-77
2023/08/06 11:57:25;;;;;;;0.60;0.60;;;21.00;99.90;;;;;;5026129;28;20166;-82
2023/08/06 11:59:50;;;;;;;0.60;0.60;;;20.70;99.90;;;;;;5018903;28;20181;-81
2023/08/06 12:02:16;;;;;;;3.90;0.80;;;20.70;99.90;;;;;;5017725;28;20183;-83
2023/08/06 12:05:02;;;;;;;0.70;0.70;;;20.70;99.90;;;;;;5000055;28;20185;-83
2023/08/06 12:07:43;;;;;;;0.67;0.53;;;20.70;99.90;;;;;;4999937;28;20841;-77
2023/08/06 12:10:10;;;;;;;0.67;0.67;;;20.80;99.90;;;;;;5000504;28;20181;-79
2023/08/06 12:12:36;;;;;;;0.73;0.73;;;20.80;99.90;;;;;;4999600;28;20173;-79
2023/08/06 12:15:06;;;;;;;0.80;0.80;;;20.90;99.90;;;;;;5018373;28;20169;-83
2023/08/06 12:17:32;;;;;;;0.83;0.70;;;21.10;99.90;;;;;;5001187;28;20237;-82
2023/08/06 12:19:58;;;;;;;0.60;0.60;;;21.10;99.90;;;;;;5017971;28;20201;-82
2023/08/06 12:22:24;;;;;;;0.87;0.87;;;21.20;99.90;;;;;;5017623;28;20640;-83
2023/08/06 12:24:50;;;;;;;0.83;0.83;;;21.30;99.90;;;;;;5019270;28;20170;-83
2023/08/06 12:27:16;;;;;;;0.90;0.90;;;21.40;99.90;;;;;;5017244;28;20170;-79
2023/08/06 12:29:43;;;;;;;0.80;0.80;;;21.50;99.90;;;;;;4999888;28;20245;-78
2023/08/06 12:32:11;;;;;;;0.60;0.60;;;21.60;99.90;;;;;;5035619;28;20177;-79
2023/08/06 12:34:41;;;;;;;0.83;0.83;;;21.60;99.90;;;;;;5029594;28;20209;-84
2023/08/06 12:37:08;;;;;;;0.70;0.70;;;21.80;99.90;;;;;;5005673;28;20173;-87
2023/08/06 12:39:35;;;;;;;0.70;0.70;;;21.70;99.90;;;;;;5004066;28;20211;-87
2023/08/06 12:42:02;;;;;;;0.93;0.93;;;21.70;99.90;;;;;;5018565;28;20235;-77
2023/08/06 12:44:28;;;;;;;0.70;0.70;;;21.50;99.90;;;;;;5018009;28;20173;-79
2023/08/06 12:46:54;;;;;;;0.40;0.40;;;21.40;99.90;;;;;;5044665;28;20284;-78
2023/08/06 12:49:24;;;;;;;0.70;0.70;;;21.30;99.90;;;;;;5052286;28;20183;-79